x

Southeast Bering Sea -205nm Wnw Of Dutch Harbor, Ak (46073) Wave Buoy

6:50am - Tue 30th Sep 2014 All times are UTC.

  • Sig Wave height 8.9ft
  • Swell Direction
  • Peak Period 8s
  • Average Period 6s
  • Wind
    27mph, 31mph gusts
  • Sea Temp 51°f
  • 空気 Temp 49°f
  • Sea Pressure 1020.4mb

More Historic Weather Station data

Upgrade to MSW Pro to gain access to the past 30 days of data for over 8000 Wavebouys and Weather Stations around the globe.

Join Pro

Comparision Forecast

View Surf forecast
   
Tue 09/30 6:50am 9ft 8s 6s 27 31 mph 1020.4mb 51f 49f
5:50am 9ft 7s 6s 27 31 mph 1020mb 51f 50f
4:50am 9ft 7s 6s 27 34 mph 1019.7mb 51f 50f
3:50am 9ft 8s 6s 27 31 mph 1019.3mb 51f 50f
2:50am 10ft 7s 6s 27 31 mph 1019.3mb 51f 50f
1:50am 11ft 8s 6s 27 34 mph 1019.4mb 51f 50f
12:50am 10ft 8s 6s 27 31 mph 1019.5mb 51f 50f
Mon 09/29 11:50pm 8.5ft 7s 6s 29 34 mph 1019.3mb 51f 50f
10:50pm 7.5ft 7s 6s 27 31 mph 1019.4mb 51f 50f
9:50pm 7.5ft 7s 6s 25 31 mph 1019.7mb 51f 50f
8:50pm 6ft 7s 5s 25 29 mph 1019.7mb 51f 51f
7:50pm 6ft 6s 5s 25 31 mph 1019.1mb 51f 51f
6:50pm 6ft 6s 5s 25 29 mph 1018.8mb 51f 51f
5:50pm 6ft 6s 5s 25 29 mph 1018.6mb 51f 51f
4:50pm 6ft 11s 6s 25 29 mph 1018.3mb 51f 50f
3:50pm 6.5ft 9s 6s 25 27 mph 1018.3mb 51f 50f
2:50pm 5.5ft 9s 5s 22 27 mph 1018.3mb 51f 50f
1:50pm 5ft 10s 5s 20 22 mph 1018.5mb 51f 50f
12:50pm 5ft 10s 5s 22 27 mph 1018.4mb 51f 50f
11:50am 4.5ft 11s 5s 20 22 mph 1018.6mb 51f 50f
10:50am 4.5ft 11s 5s 18 22 mph 1018.9mb 51f 51f
9:50am 4.5ft 13s 5s 18 22 mph 1018.9mb 51f 51f
8:50am 4.5ft 13s 5s 20 22 mph 1018.6mb 51f 50f
7:50am 5ft 14s 5s 20 25 mph 1018.4mb 51f 50f
6:50am 4.5ft 5s 5s 18 20 mph 1018.5mb 51f 50f
5:50am 4.5ft 5s 5s 18 20 mph 1018.6mb 51f 50f
4:50am 4.5ft 14s 5s 18 20 mph 1018.1mb 51f 50f
3:50am 3.5ft 14s 5s 18 20 mph 1018mb 51f 50f
2:50am 3.5ft 14s 5s 18 20 mph 1017.5mb 51f 50f
1:50am 3.5ft 9s 5s 16 18 mph 1017.4mb 51f 50f
12:50am 3.5ft 8s 5s 13 18 mph 1017.3mb 51f 50f
Sun 09/28 11:50pm 3.5ft 6s 5s 13 16 mph 1017.7mb 51f 50f
10:50pm 3.5ft 9s 5s 13 18 mph 1017.9mb 51f 50f
9:50pm 3.5ft 9s 5s 13 18 mph 1018mb 51f 50f
8:50pm 3.5ft 9s 5s 13 16 mph 1018.1mb 51f 50f
7:50pm 3.5ft 8s 5s 13 18 mph 1017.7mb 51f 50f
6:50pm 3.5ft 8s 5s 13 16 mph 1017.5mb 51f 50f
5:50pm 3.5ft 8s 5s 13 16 mph 1017.2mb 51f 50f
4:50pm 3.5ft 9s 5s 13 16 mph 1017mb 51f 50f
3:50pm 3ft 10s 5s 11 13 mph 1016.8mb 51f 50f
2:50pm 3ft 9s 5s 11 13 mph 1016.7mb 51f 50f
1:50pm 3ft 8s 5s 11 13 mph 1016.6mb 51f 50f
12:50pm 3ft 6s 5s 9 11 mph 1016.8mb 51f 50f
11:50am 3.5ft 7s 5s 11 13 mph 1016.7mb 51f 50f
10:50am 3ft 7s 5s 11 13 mph 1016.4mb 51f 50f
9:50am 2.5ft 7s 5s 13
mph
1016.6mb 51f 50f
8:50am 3ft 7s 5s 11 13 mph 1016.7mb 51f 50f
7:50am 2.5ft 7s 5s 9 11 mph 1016.9mb 51f 50f
6:50am 3ft 7s 6s 9 11 mph 1017.1mb 51f 50f
5:50am 3ft 7s 6s 9
mph
1017mb 51f 50f
4:50am 3ft 8s 6s 7 9 mph 1016.8mb 51f 50f
3:50am 3ft 8s 6s 9 11 mph 1016.7mb 52f 50f
2:50am 3.5ft 8s 6s 9 11 mph 1016.6mb 52f 51f
1:50am 3.5ft 8s 6s 7 9 mph 1016.6mb 52f 51f
12:50am 4ft 8s 6s 7 9 mph 1016.9mb 51f 50f
Sat 09/27 11:50pm 3.5ft 8s 6s 11 13 mph 1017.6mb 51f 50f
10:50pm 4.5ft 8s 6s 9 11 mph 1018mb 51f 51f
9:50pm 4.5ft 8s 6s 9 11 mph 1018.4mb 51f 50f
8:50pm 4.5ft 8s 6s 7 9 mph 1018.4mb 51f 50f
7:50pm 4.5ft 8s 6s 7 9 mph 1018.8mb 51f 50f
6:50pm 4.5ft 9s 6s 7 9 mph 1018.7mb 51f 50f
5:50pm 4.5ft 8s 6s 7 9 mph 1018.7mb 51f 50f
4:50pm 4.5ft 8s 6s 4 7 mph 1019mb 51f 50f
3:50pm 4.5ft 8s 6s 4 7 mph 1019.2mb 51f 50f
2:50pm 4.5ft 9s 6s 4 9 mph 1019.5mb 51f 50f
1:50pm 5ft 8s 7s 4 7 mph 1019.6mb 51f 50f
12:50pm 5ft 8s 7s 7 9 mph 1019.6mb 51f 50f
11:50am 5ft 9s 7s 9 11 mph 1020mb 51f 50f
10:50am 6ft 8s 7s 4 7 mph 1019.9mb 51f 50f
9:50am 6ft 9s 7s 2 4 mph 1020.2mb 51f 50f
8:50am 5ft 8s 6s 2 4 mph 1020.3mb 51f 50f
7:50am 6ft 8s 7s 4 7 mph 1020.3mb 51f 50f
6:50am 6ft 8s 7s 7
mph
1020.2mb 51f 51f
5:50am 5.5ft 8s 7s 7 9 mph 1019.9mb 51f 51f
4:50am 6ft 8s 7s 9 11 mph 1019.6mb 51f 51f
3:50am 5.5ft 9s 6s 9 11 mph 1019.3mb 51f 51f
2:50am 6ft 8s 6s 11
mph
1019.2mb 52f 51f
1:50am 5.5ft 8s 6s 11 13 mph 1018.9mb 51f 51f
12:50am 6ft 8s 6s 11 13 mph 1018.8mb 51f 51f
Fri 09/26 11:50pm 5ft 8s 6s 11 13 mph 1018.8mb 51f 51f
10:50pm 4.5ft 7s 5s 13 16 mph 1018.7mb 51f 51f
9:50pm 5ft 7s 5s 13 16 mph 1018.5mb 51f 51f
8:50pm 5ft 7s 5s 13 16 mph 1018.1mb 51f 51f
7:50pm 5ft 7s 5s 16 18 mph 1017.3mb 51f 51f
6:50pm 5ft 7s 5s 18 20 mph 1016.8mb 51f 51f
5:50pm 5ft 6s 5s 18 20 mph 1016.1mb 51f 51f
4:50pm 5ft 6s 5s 18 20 mph 1015.3mb 51f 51f
3:50pm 5ft 6s 5s 18 22 mph 1014.3mb 51f 51f
2:50pm 5ft 6s 5s 20 25 mph 1013.5mb 51f 51f
1:50pm 5ft 5s 5s 20 25 mph 1012.9mb 51f 51f
12:50pm 4.5ft 6s 5s 20 25 mph 1012.7mb 51f 50f
11:50am 4.5ft 5s 5s 20 25 mph 1012.2mb 51f 50f
10:50am 4.5ft 6s 5s 20 25 mph 1011.5mb 51f 50f
9:50am 4.5ft 7s 5s 20 25 mph 1011.1mb 51f 51f
8:50am 4.5ft 6s 5s 18 22 mph 1010.5mb 51f 51f
7:50am 3.5ft 6s 5s 16 18 mph 1009.8mb 51f 51f